sensor_id;sensor_type;location;lat;lon;timestamp;temperature;humidity
76613;DHT22;65507;48.454;-2.058;2023-05-29T00:02:06;15.50;64.60
76613;DHT22;65507;48.454;-2.058;2023-05-29T00:04:31;15.50;64.70
76613;DHT22;65507;48.454;-2.058;2023-05-29T00:06:57;15.50;64.80
76613;DHT22;65507;48.454;-2.058;2023-05-29T00:09:23;15.50;64.90
76613;DHT22;65507;48.454;-2.058;2023-05-29T00:11:48;15.40;64.90
76613;DHT22;65507;48.454;-2.058;2023-05-29T00:14:17;15.40;65.00
76613;DHT22;65507;48.454;-2.058;2023-05-29T00:16:45;15.40;65.10
76613;DHT22;65507;48.454;-2.058;2023-05-29T00:19:12;15.40;65.00
76613;DHT22;65507;48.454;-2.058;2023-05-29T00:21:38;15.40;65.10
76613;DHT22;65507;48.454;-2.058;2023-05-29T00:24:04;15.40;65.20
76613;DHT22;65507;48.454;-2.058;2023-05-29T00:26:30;15.30;65.30
76613;DHT22;65507;48.454;-2.058;2023-05-29T00:28:56;15.30;65.40
76613;DHT22;65507;48.454;-2.058;2023-05-29T00:31:21;15.30;65.40
76613;DHT22;65507;48.454;-2.058;2023-05-29T00:33:47;15.30;65.50
76613;DHT22;65507;48.454;-2.058;2023-05-29T00:36:12;15.20;65.50
76613;DHT22;65507;48.454;-2.058;2023-05-29T00:38:38;15.20;65.60
76613;DHT22;65507;48.454;-2.058;2023-05-29T00:41:03;15.20;65.60
76613;DHT22;65507;48.454;-2.058;2023-05-29T00:43:29;15.20;65.70
76613;DHT22;65507;48.454;-2.058;2023-05-29T00:45:54;15.10;65.70
76613;DHT22;65507;48.454;-2.058;2023-05-29T00:48:20;15.10;65.80
76613;DHT22;65507;48.454;-2.058;2023-05-29T00:50:45;15.10;65.80
76613;DHT22;65507;48.454;-2.058;2023-05-29T00:53:11;15.10;65.90
76613;DHT22;65507;48.454;-2.058;2023-05-29T00:55:38;15.10;66.00
76613;DHT22;65507;48.454;-2.058;2023-05-29T00:58:04;15.00;66.00
76613;DHT22;65507;48.454;-2.058;2023-05-29T01:00:30;15.00;66.00
76613;DHT22;65507;48.454;-2.058;2023-05-29T01:02:56;15.00;66.10
76613;DHT22;65507;48.454;-2.058;2023-05-29T01:05:22;14.90;66.10
76613;DHT22;65507;48.454;-2.058;2023-05-29T01:07:47;14.90;66.20
76613;DHT22;65507;48.454;-2.058;2023-05-29T01:10:14;14.90;66.20
76613;DHT22;65507;48.454;-2.058;2023-05-29T01:15:18;14.90;66.30
76613;DHT22;65507;48.454;-2.058;2023-05-29T01:17:51;14.80;66.30
76613;DHT22;65507;48.454;-2.058;2023-05-29T01:27:57;14.80;66.30
76613;DHT22;65507;48.454;-2.058;2023-05-29T01:30:26;14.80;66.20
76613;DHT22;65507;48.454;-2.058;2023-05-29T01:32:53;14.80;66.20
76613;DHT22;65507;48.454;-2.058;2023-05-29T01:35:18;14.80;66.30
76613;DHT22;65507;48.454;-2.058;2023-05-29T01:37:44;14.70;66.40
76613;DHT22;65507;48.454;-2.058;2023-05-29T01:40:10;14.70;66.40
76613;DHT22;65507;48.454;-2.058;2023-05-29T01:42:36;14.70;66.40
76613;DHT22;65507;48.454;-2.058;2023-05-29T01:45:01;14.70;66.40
76613;DHT22;65507;48.454;-2.058;2023-05-29T01:47:30;14.70;66.40
76613;DHT22;65507;48.454;-2.058;2023-05-29T01:49:56;14.70;66.50
76613;DHT22;65507;48.454;-2.058;2023-05-29T01:52:22;14.70;66.60
76613;DHT22;65507;48.454;-2.058;2023-05-29T01:54:47;14.70;66.60
76613;DHT22;65507;48.454;-2.058;2023-05-29T01:57:13;14.60;66.60
76613;DHT22;65507;48.454;-2.058;2023-05-29T01:59:38;14.60;66.50
76613;DHT22;65507;48.454;-2.058;2023-05-29T02:02:05;14.60;66.50
76613;DHT22;65507;48.454;-2.058;2023-05-29T02:04:31;14.60;66.50
76613;DHT22;65507;48.454;-2.058;2023-05-29T02:06:56;14.60;66.50
76613;DHT22;65507;48.454;-2.058;2023-05-29T02:09:26;14.60;66.60
76613;DHT22;65507;48.454;-2.058;2023-05-29T02:11:52;14.60;66.50
76613;DHT22;65507;48.454;-2.058;2023-05-29T02:14:17;14.60;66.50
76613;DHT22;65507;48.454;-2.058;2023-05-29T02:16:43;14.60;66.50
76613;DHT22;65507;48.454;-2.058;2023-05-29T02:19:09;14.60;66.60
76613;DHT22;65507;48.454;-2.058;2023-05-29T02:21:38;14.60;66.70
76613;DHT22;65507;48.454;-2.058;2023-05-29T02:24:04;14.50;66.70
76613;DHT22;65507;48.454;-2.058;2023-05-29T02:26:29;14.50;66.60
76613;DHT22;65507;48.454;-2.058;2023-05-29T02:28:55;14.50;66.80
76613;DHT22;65507;48.454;-2.058;2023-05-29T02:31:21;14.50;67.00
76613;DHT22;65507;48.454;-2.058;2023-05-29T02:33:46;14.50;67.10
76613;DHT22;65507;48.454;-2.058;2023-05-29T02:36:13;14.50;67.20
76613;DHT22;65507;48.454;-2.058;2023-05-29T02:38:38;14.40;67.20
76613;DHT22;65507;48.454;-2.058;2023-05-29T02:41:04;14.40;67.30
76613;DHT22;65507;48.454;-2.058;2023-05-29T02:43:29;14.40;67.30
76613;DHT22;65507;48.454;-2.058;2023-05-29T02:45:55;14.40;67.30
76613;DHT22;65507;48.454;-2.058;2023-05-29T02:48:20;14.30;67.40
76613;DHT22;65507;48.454;-2.058;2023-05-29T02:50:47;14.30;67.40
76613;DHT22;65507;48.454;-2.058;2023-05-29T02:53:12;14.30;67.50
76613;DHT22;65507;48.454;-2.058;2023-05-29T02:55:38;14.30;67.60
76613;DHT22;65507;48.454;-2.058;2023-05-29T02:58:03;14.30;67.50
76613;DHT22;65507;48.454;-2.058;2023-05-29T03:00:29;14.30;67.60
76613;DHT22;65507;48.454;-2.058;2023-05-29T03:02:57;14.20;67.60
76613;DHT22;65507;48.454;-2.058;2023-05-29T03:05:23;14.20;67.60
76613;DHT22;65507;48.454;-2.058;2023-05-29T03:07:48;14.20;67.70
76613;DHT22;65507;48.454;-2.058;2023-05-29T03:10:14;14.20;67.90
76613;DHT22;65507;48.454;-2.058;2023-05-29T03:12:42;14.20;67.90
76613;DHT22;65507;48.454;-2.058;2023-05-29T03:15:09;14.10;68.00
76613;DHT22;65507;48.454;-2.058;2023-05-29T03:17:34;15.20;68.50
76613;DHT22;65507;48.454;-2.058;2023-05-29T03:20:02;14.20;68.00
76613;DHT22;65507;48.454;-2.058;2023-05-29T03:22:31;14.20;68.00
76613;DHT22;65507;48.454;-2.058;2023-05-29T03:24:57;14.90;68.30
76613;DHT22;65507;48.454;-2.058;2023-05-29T03:27:22;14.10;67.80
76613;DHT22;65507;48.454;-2.058;2023-05-29T03:29:48;14.20;67.90
76613;DHT22;65507;48.454;-2.058;2023-05-29T03:32:14;14.20;67.90
76613;DHT22;65507;48.454;-2.058;2023-05-29T03:34:39;14.20;67.90
76613;DHT22;65507;48.454;-2.058;2023-05-29T03:37:05;14.20;68.20
76613;DHT22;65507;48.454;-2.058;2023-05-29T03:39:31;14.20;68.20
76613;DHT22;65507;48.454;-2.058;2023-05-29T03:41:56;14.10;68.30
76613;DHT22;65507;48.454;-2.058;2023-05-29T03:44:22;14.10;68.30
76613;DHT22;65507;48.454;-2.058;2023-05-29T03:46:47;14.10;68.30
76613;DHT22;65507;48.454;-2.058;2023-05-29T03:49:13;14.10;68.30
76613;DHT22;65507;48.454;-2.058;2023-05-29T03:51:38;14.10;68.30
76613;DHT22;65507;48.454;-2.058;2023-05-29T03:54:04;14.10;68.30
76613;DHT22;65507;48.454;-2.058;2023-05-29T03:56:30;14.10;68.20
76613;DHT22;65507;48.454;-2.058;2023-05-29T03:58:55;14.10;68.30
76613;DHT22;65507;48.454;-2.058;2023-05-29T04:01:21;14.10;68.40
76613;DHT22;65507;48.454;-2.058;2023-05-29T04:03:46;14.10;68.50
76613;DHT22;65507;48.454;-2.058;2023-05-29T04:06:12;14.00;68.40
76613;DHT22;65507;48.454;-2.058;2023-05-29T04:08:38;14.00;68.50
76613;DHT22;65507;48.454;-2.058;2023-05-29T04:11:03;14.00;68.80
76613;DHT22;65507;48.454;-2.058;2023-05-29T04:13:30;14.00;68.80
76613;DHT22;65507;48.454;-2.058;2023-05-29T04:15:55;14.00;69.00
76613;DHT22;65507;48.454;-2.058;2023-05-29T04:18:21;14.00;69.00
76613;DHT22;65507;48.454;-2.058;2023-05-29T04:20:46;14.00;69.00
76613;DHT22;65507;48.454;-2.058;2023-05-29T04:23:12;14.00;69.00
76613;DHT22;65507;48.454;-2.058;2023-05-29T04:25:38;14.00;69.00
76613;DHT22;65507;48.454;-2.058;2023-05-29T04:28:03;13.90;69.00
76613;DHT22;65507;48.454;-2.058;2023-05-29T04:30:29;14.00;69.00
76613;DHT22;65507;48.454;-2.058;2023-05-29T04:32:55;13.90;68.90
76613;DHT22;65507;48.454;-2.058;2023-05-29T04:35:21;13.90;69.00
76613;DHT22;65507;48.454;-2.058;2023-05-29T04:37:47;13.90;69.00
76613;DHT22;65507;48.454;-2.058;2023-05-29T04:40:12;14.00;69.00
76613;DHT22;65507;48.454;-2.058;2023-05-29T04:42:42;14.00;69.00
76613;DHT22;65507;48.454;-2.058;2023-05-29T04:45:10;14.00;69.00
76613;DHT22;65507;48.454;-2.058;2023-05-29T04:47:36;14.00;69.00
76613;DHT22;65507;48.454;-2.058;2023-05-29T04:50:14;14.00;69.00
76613;DHT22;65507;48.454;-2.058;2023-05-29T04:52:40;14.00;68.90
76613;DHT22;65507;48.454;-2.058;2023-05-29T04:55:05;14.10;68.80
76613;DHT22;65507;48.454;-2.058;2023-05-29T04:57:31;14.10;68.80
76613;DHT22;65507;48.454;-2.058;2023-05-29T04:59:56;14.20;68.70
76613;DHT22;65507;48.454;-2.058;2023-05-29T05:02:22;14.20;68.50
76613;DHT22;65507;48.454;-2.058;2023-05-29T05:04:48;14.30;68.40
76613;DHT22;65507;48.454;-2.058;2023-05-29T05:07:13;14.30;68.30
76613;DHT22;65507;48.454;-2.058;2023-05-29T05:09:41;14.40;68.40
76613;DHT22;65507;48.454;-2.058;2023-05-29T05:12:07;14.40;68.50
76613;DHT22;65507;48.454;-2.058;2023-05-29T05:14:32;14.40;68.40
76613;DHT22;65507;48.454;-2.058;2023-05-29T05:16:58;14.40;68.40
76613;DHT22;65507;48.454;-2.058;2023-05-29T05:19:23;14.50;68.30
76613;DHT22;65507;48.454;-2.058;2023-05-29T05:21:49;14.50;68.30
76613;DHT22;65507;48.454;-2.058;2023-05-29T05:24:14;14.60;68.30
76613;DHT22;65507;48.454;-2.058;2023-05-29T05:26:40;14.60;68.30
76613;DHT22;65507;48.454;-2.058;2023-05-29T05:29:06;14.70;68.30
76613;DHT22;65507;48.454;-2.058;2023-05-29T05:31:31;14.70;68.20
76613;DHT22;65507;48.454;-2.058;2023-05-29T05:33:57;14.80;68.20
76613;DHT22;65507;48.454;-2.058;2023-05-29T05:36:22;14.80;68.10
76613;DHT22;65507;48.454;-2.058;2023-05-29T05:38:48;14.90;68.00
76613;DHT22;65507;48.454;-2.058;2023-05-29T05:41:14;15.00;67.90
76613;DHT22;65507;48.454;-2.058;2023-05-29T05:43:39;15.00;67.90
76613;DHT22;65507;48.454;-2.058;2023-05-29T05:46:05;15.10;67.80
76613;DHT22;65507;48.454;-2.058;2023-05-29T05:48:30;15.20;67.80
76613;DHT22;65507;48.454;-2.058;2023-05-29T05:50:56;15.20;67.70
76613;DHT22;65507;48.454;-2.058;2023-05-29T05:53:21;15.30;67.80
76613;DHT22;65507;48.454;-2.058;2023-05-29T05:55:47;15.40;67.60
76613;DHT22;65507;48.454;-2.058;2023-05-29T05:58:13;15.40;67.50
76613;DHT22;65507;48.454;-2.058;2023-05-29T06:00:39;15.50;67.40
76613;DHT22;65507;48.454;-2.058;2023-05-29T06:03:04;15.60;67.40
76613;DHT22;65507;48.454;-2.058;2023-05-29T06:05:30;15.60;67.50
76613;DHT22;65507;48.454;-2.058;2023-05-29T06:07:56;15.60;67.50
76613;DHT22;65507;48.454;-2.058;2023-05-29T06:10:21;15.60;67.60
76613;DHT22;65507;48.454;-2.058;2023-05-29T06:12:47;15.60;67.50
76613;DHT22;65507;48.454;-2.058;2023-05-29T06:15:12;15.70;67.50
76613;DHT22;65507;48.454;-2.058;2023-05-29T06:17:38;15.70;67.50
76613;DHT22;65507;48.454;-2.058;2023-05-29T06:20:04;15.80;67.50
76613;DHT22;65507;48.454;-2.058;2023-05-29T06:22:35;15.90;67.40
76613;DHT22;65507;48.454;-2.058;2023-05-29T06:25:00;15.90;67.30
76613;DHT22;65507;48.454;-2.058;2023-05-29T06:27:26;15.90;68.40
76613;DHT22;65507;48.454;-2.058;2023-05-29T06:29:51;16.00;67.40
76613;DHT22;65507;48.454;-2.058;2023-05-29T06:32:17;16.00;67.40
76613;DHT22;65507;48.454;-2.058;2023-05-29T06:34:43;16.10;67.40
76613;DHT22;65507;48.454;-2.058;2023-05-29T06:37:08;16.10;67.40
76613;DHT22;65507;48.454;-2.058;2023-05-29T06:39:34;16.10;67.50
76613;DHT22;65507;48.454;-2.058;2023-05-29T06:42:00;16.10;67.60
76613;DHT22;65507;48.454;-2.058;2023-05-29T06:44:26;16.10;67.70
76613;DHT22;65507;48.454;-2.058;2023-05-29T06:46:52;16.10;67.70
76613;DHT22;65507;48.454;-2.058;2023-05-29T06:49:17;16.00;68.00
76613;DHT22;65507;48.454;-2.058;2023-05-29T06:51:43;16.00;67.90
76613;DHT22;65507;48.454;-2.058;2023-05-29T06:54:09;16.00;68.00
76613;DHT22;65507;48.454;-2.058;2023-05-29T06:56:35;16.10;68.00
76613;DHT22;65507;48.454;-2.058;2023-05-29T06:59:00;16.10;67.90
76613;DHT22;65507;48.454;-2.058;2023-05-29T07:01:26;16.10;67.90
76613;DHT22;65507;48.454;-2.058;2023-05-29T07:03:52;16.20;67.90
76613;DHT22;65507;48.454;-2.058;2023-05-29T07:06:18;16.20;67.70
76613;DHT22;65507;48.454;-2.058;2023-05-29T07:08:43;16.30;67.60
76613;DHT22;65507;48.454;-2.058;2023-05-29T07:11:09;16.30;68.40
76613;DHT22;65507;48.454;-2.058;2023-05-29T07:13:34;16.40;67.50
76613;DHT22;65507;48.454;-2.058;2023-05-29T07:16:01;16.50;67.40
76613;DHT22;65507;48.454;-2.058;2023-05-29T07:18:26;16.50;67.20
76613;DHT22;65507;48.454;-2.058;2023-05-29T07:20:52;16.70;67.00
76613;DHT22;65507;48.454;-2.058;2023-05-29T07:23:17;16.90;66.80
76613;DHT22;65507;48.454;-2.058;2023-05-29T07:25:43;17.00;66.60
76613;DHT22;65507;48.454;-2.058;2023-05-29T07:28:08;17.10;66.50
76613;DHT22;65507;48.454;-2.058;2023-05-29T07:30:34;17.20;66.20
76613;DHT22;65507;48.454;-2.058;2023-05-29T07:32:59;17.30;66.10
76613;DHT22;65507;48.454;-2.058;2023-05-29T07:35:25;17.40;66.00
76613;DHT22;65507;48.454;-2.058;2023-05-29T07:37:51;17.40;66.10
76613;DHT22;65507;48.454;-2.058;2023-05-29T07:40:17;17.30;66.30
76613;DHT22;65507;48.454;-2.058;2023-05-29T07:42:43;17.30;66.50
76613;DHT22;65507;48.454;-2.058;2023-05-29T07:45:08;17.40;66.60
76613;DHT22;65507;48.454;-2.058;2023-05-29T07:47:34;17.40;66.30
76613;DHT22;65507;48.454;-2.058;2023-05-29T07:49:59;17.50;66.20
76613;DHT22;65507;48.454;-2.058;2023-05-29T07:52:25;17.70;66.00
76613;DHT22;65507;48.454;-2.058;2023-05-29T07:54:50;17.80;65.70
76613;DHT22;65507;48.454;-2.058;2023-05-29T07:57:16;17.90;65.50
76613;DHT22;65507;48.454;-2.058;2023-05-29T07:59:42;18.00;65.50
76613;DHT22;65507;48.454;-2.058;2023-05-29T08:02:08;17.90;65.60
76613;DHT22;65507;48.454;-2.058;2023-05-29T08:04:33;17.80;66.00
76613;DHT22;65507;48.454;-2.058;2023-05-29T08:07:00;17.70;66.20
76613;DHT22;65507;48.454;-2.058;2023-05-29T08:09:26;17.70;66.50
76613;DHT22;65507;48.454;-2.058;2023-05-29T08:11:51;17.60;66.60
76613;DHT22;65507;48.454;-2.058;2023-05-29T08:14:17;17.50;66.80
76613;DHT22;65507;48.454;-2.058;2023-05-29T08:16:43;17.40;66.90
76613;DHT22;65507;48.454;-2.058;2023-05-29T08:19:08;17.40;67.00
76613;DHT22;65507;48.454;-2.058;2023-05-29T08:21:34;17.40;66.90
76613;DHT22;65507;48.454;-2.058;2023-05-29T08:23:59;17.50;66.80
76613;DHT22;65507;48.454;-2.058;2023-05-29T08:26:28;17.70;67.50
76613;DHT22;65507;48.454;-2.058;2023-05-29T08:28:53;17.80;66.40
76613;DHT22;65507;48.454;-2.058;2023-05-29T08:31:20;17.80;66.20
76613;DHT22;65507;48.454;-2.058;2023-05-29T08:33:45;18.00;66.10
76613;DHT22;65507;48.454;-2.058;2023-05-29T08:36:11;18.10;65.70
76613;DHT22;65507;48.454;-2.058;2023-05-29T08:38:36;18.20;65.40
76613;DHT22;65507;48.454;-2.058;2023-05-29T08:41:02;18.30;65.30
76613;DHT22;65507;48.454;-2.058;2023-05-29T08:43:31;18.30;65.30
76613;DHT22;65507;48.454;-2.058;2023-05-29T08:46:01;18.30;65.30
76613;DHT22;65507;48.454;-2.058;2023-05-29T08:48:27;18.40;65.40
76613;DHT22;65507;48.454;-2.058;2023-05-29T08:50:54;18.30;65.40
76613;DHT22;65507;48.454;-2.058;2023-05-29T08:53:23;18.40;65.40
76613;DHT22;65507;48.454;-2.058;2023-05-29T08:55:49;18.40;65.40
76613;DHT22;65507;48.454;-2.058;2023-05-29T08:58:22;18.40;65.40
76613;DHT22;65507;48.454;-2.058;2023-05-29T09:00:49;18.50;65.40
76613;DHT22;65507;48.454;-2.058;2023-05-29T09:03:14;18.50;65.20
76613;DHT22;65507;48.454;-2.058;2023-05-29T09:05:40;18.60;65.00
76613;DHT22;65507;48.454;-2.058;2023-05-29T09:08:07;18.60;64.90
76613;DHT22;65507;48.454;-2.058;2023-05-29T09:10:34;18.70;65.00
76613;DHT22;65507;48.454;-2.058;2023-05-29T09:13:00;18.80;64.70
76613;DHT22;65507;48.454;-2.058;2023-05-29T09:15:25;18.90;64.60
76613;DHT22;65507;48.454;-2.058;2023-05-29T09:17:52;18.90;64.50
76613;DHT22;65507;48.454;-2.058;2023-05-29T09:20:18;19.10;64.40
76613;DHT22;65507;48.454;-2.058;2023-05-29T09:22:53;19.10;64.30
76613;DHT22;65507;48.454;-2.058;2023-05-29T09:25:22;19.20;64.20
76613;DHT22;65507;48.454;-2.058;2023-05-29T09:27:55;19.20;64.30
76613;DHT22;65507;48.454;-2.058;2023-05-29T09:33:16;19.10;64.50
76613;DHT22;65507;48.454;-2.058;2023-05-29T09:35:43;18.90;64.80
76613;DHT22;65507;48.454;-2.058;2023-05-29T09:38:12;18.90;65.10
76613;DHT22;65507;48.454;-2.058;2023-05-29T09:40:39;18.90;65.00
76613;DHT22;65507;48.454;-2.058;2023-05-29T09:43:18;19.00;64.80
76613;DHT22;65507;48.454;-2.058;2023-05-29T09:45:46;19.10;64.80
76613;DHT22;65507;48.454;-2.058;2023-05-29T09:48:13;19.20;64.40
76613;DHT22;65507;48.454;-2.058;2023-05-29T09:50:39;19.30;64.30
76613;DHT22;65507;48.454;-2.058;2023-05-29T09:53:15;19.30;64.10
76613;DHT22;65507;48.454;-2.058;2023-05-29T09:55:43;19.20;64.20
76613;DHT22;65507;48.454;-2.058;2023-05-29T09:58:09;19.10;64.40
76613;DHT22;65507;48.454;-2.058;2023-05-29T10:00:36;19.00;64.80
76613;DHT22;65507;48.454;-2.058;2023-05-29T10:03:01;18.90;64.90
76613;DHT22;65507;48.454;-2.058;2023-05-29T10:05:27;18.80;65.00
76613;DHT22;65507;48.454;-2.058;2023-05-29T10:07:54;17.80;64.40
76613;DHT22;65507;48.454;-2.058;2023-05-29T10:10:19;18.80;64.90
76613;DHT22;65507;48.454;-2.058;2023-05-29T10:12:48;18.80;64.80
76613;DHT22;65507;48.454;-2.058;2023-05-29T10:15:14;18.80;64.90
76613;DHT22;65507;48.454;-2.058;2023-05-29T10:17:44;18.90;64.70
76613;DHT22;65507;48.454;-2.058;2023-05-29T10:20:10;19.00;64.40
76613;DHT22;65507;48.454;-2.058;2023-05-29T10:22:42;19.30;64.00
76613;DHT22;65507;48.454;-2.058;2023-05-29T10:25:10;19.50;63.60
76613;DHT22;65507;48.454;-2.058;2023-05-29T10:27:36;19.60;63.20
76613;DHT22;65507;48.454;-2.058;2023-05-29T10:30:03;19.80;63.00
76613;DHT22;65507;48.454;-2.058;2023-05-29T10:32:36;19.80;62.90
76613;DHT22;65507;48.454;-2.058;2023-05-29T10:40:07;20.10;62.70
76613;DHT22;65507;48.454;-2.058;2023-05-29T10:45:04;20.10;62.70
76613;DHT22;65507;48.454;-2.058;2023-05-29T10:47:30;20.10;62.90
76613;DHT22;65507;48.454;-2.058;2023-05-29T10:49:59;20.10;62.90
76613;DHT22;65507;48.454;-2.058;2023-05-29T10:52:25;20.10;62.90
76613;DHT22;65507;48.454;-2.058;2023-05-29T10:54:51;20.20;62.80
76613;DHT22;65507;48.454;-2.058;2023-05-29T10:57:18;20.20;62.80
76613;DHT22;65507;48.454;-2.058;2023-05-29T10:59:45;20.30;62.70
76613;DHT22;65507;48.454;-2.058;2023-05-29T11:02:11;20.50;62.50
76613;DHT22;65507;48.454;-2.058;2023-05-29T11:04:41;20.60;62.20
76613;DHT22;65507;48.454;-2.058;2023-05-29T11:07:07;20.70;62.10
76613;DHT22;65507;48.454;-2.058;2023-05-29T11:09:34;20.60;62.10
76613;DHT22;65507;48.454;-2.058;2023-05-29T11:14:45;20.80;62.00
76613;DHT22;65507;48.454;-2.058;2023-05-29T11:17:28;20.90;61.90
76613;DHT22;65507;48.454;-2.058;2023-05-29T11:19:54;20.80;61.90
76613;DHT22;65507;48.454;-2.058;2023-05-29T11:22:22;20.80;62.00
76613;DHT22;65507;48.454;-2.058;2023-05-29T11:24:48;20.70;62.00
76613;DHT22;65507;48.454;-2.058;2023-05-29T11:27:15;20.70;62.10
76613;DHT22;65507;48.454;-2.058;2023-05-29T11:29:40;20.80;62.10
76613;DHT22;65507;48.454;-2.058;2023-05-29T11:32:06;20.80;61.90
76613;DHT22;65507;48.454;-2.058;2023-05-29T11:34:35;20.80;61.80
76613;DHT22;65507;48.454;-2.058;2023-05-29T11:37:04;21.00;61.80
76613;DHT22;65507;48.454;-2.058;2023-05-29T11:39:29;21.00;61.60
76613;DHT22;65507;48.454;-2.058;2023-05-29T11:41:56;20.90;61.70
76613;DHT22;65507;48.454;-2.058;2023-05-29T11:44:24;21.00;61.70
76613;DHT22;65507;48.454;-2.058;2023-05-29T11:47:04;21.00;61.70
76613;DHT22;65507;48.454;-2.058;2023-05-29T11:49:30;21.10;61.60
76613;DHT22;65507;48.454;-2.058;2023-05-29T11:52:13;21.20;61.40
76613;DHT22;65507;48.454;-2.058;2023-05-29T11:54:39;21.30;61.10
76613;DHT22;65507;48.454;-2.058;2023-05-29T11:57:07;21.30;61.10
76613;DHT22;65507;48.454;-2.058;2023-05-29T11:59:33;19.90;60.40
76613;DHT22;65507;48.454;-2.058;2023-05-29T12:01:59;21.20;61.30
76613;DHT22;65507;48.454;-2.058;2023-05-29T12:04:24;21.20;61.40
76613;DHT22;65507;48.454;-2.058;2023-05-29T12:06:50;21.30;61.40
76613;DHT22;65507;48.454;-2.058;2023-05-29T12:09:25;21.20;61.00
76613;DHT22;65507;48.454;-2.058;2023-05-29T12:11:51;21.20;61.30
76613;DHT22;65507;48.454;-2.058;2023-05-29T12:14:17;21.20;61.40
76613;DHT22;65507;48.454;-2.058;2023-05-29T12:16:43;21.10;61.50
76613;DHT22;65507;48.454;-2.058;2023-05-29T12:19:08;21.20;61.40
76613;DHT22;65507;48.454;-2.058;2023-05-29T12:21:34;21.20;61.20
76613;DHT22;65507;48.454;-2.058;2023-05-29T12:24:00;21.30;61.10
76613;DHT22;65507;48.454;-2.058;2023-05-29T12:26:25;21.40;61.10
76613;DHT22;65507;48.454;-2.058;2023-05-29T12:28:51;21.40;61.00
76613;DHT22;65507;48.454;-2.058;2023-05-29T12:31:26;21.30;61.00
76613;DHT22;65507;48.454;-2.058;2023-05-29T12:33:53;21.30;61.10
76613;DHT22;65507;48.454;-2.058;2023-05-29T12:36:18;21.30;61.10
76613;DHT22;65507;48.454;-2.058;2023-05-29T12:38:47;21.30;61.10
76613;DHT22;65507;48.454;-2.058;2023-05-29T12:43:47;21.20;61.00
76613;DHT22;65507;48.454;-2.058;2023-05-29T12:46:13;21.20;61.00
76613;DHT22;65507;48.454;-2.058;2023-05-29T12:48:38;21.20;61.00
76613;DHT22;65507;48.454;-2.058;2023-05-29T12:51:04;21.30;61.00
76613;DHT22;65507;48.454;-2.058;2023-05-29T12:53:33;21.40;60.90
76613;DHT22;65507;48.454;-2.058;2023-05-29T12:55:58;21.50;60.70
76613;DHT22;65507;48.454;-2.058;2023-05-29T12:58:24;21.50;60.50
76613;DHT22;65507;48.454;-2.058;2023-05-29T13:00:52;21.60;60.40
76613;DHT22;65507;48.454;-2.058;2023-05-29T13:03:21;21.70;60.20
76613;DHT22;65507;48.454;-2.058;2023-05-29T13:05:49;21.80;60.10
76613;DHT22;65507;48.454;-2.058;2023-05-29T13:08:15;21.90;59.90
76613;DHT22;65507;48.454;-2.058;2023-05-29T13:10:41;21.90;60.00
76613;DHT22;65507;48.454;-2.058;2023-05-29T13:13:06;22.00;60.00
76613;DHT22;65507;48.454;-2.058;2023-05-29T13:15:32;22.00;59.90
76613;DHT22;65507;48.454;-2.058;2023-05-29T13:17:59;22.10;59.80
76613;DHT22;65507;48.454;-2.058;2023-05-29T13:20:24;22.00;59.90
76613;DHT22;65507;48.454;-2.058;2023-05-29T13:22:50;21.90;60.00
76613;DHT22;65507;48.454;-2.058;2023-05-29T13:25:16;21.90;60.00
76613;DHT22;65507;48.454;-2.058;2023-05-29T13:27:43;21.90;60.10
76613;DHT22;65507;48.454;-2.058;2023-05-29T13:30:09;22.00;60.10
76613;DHT22;65507;48.454;-2.058;2023-05-29T13:32:35;22.00;60.90
76613;DHT22;65507;48.454;-2.058;2023-05-29T13:35:01;22.00;60.10
76613;DHT22;65507;48.454;-2.058;2023-05-29T13:37:27;22.00;60.10
76613;DHT22;65507;48.454;-2.058;2023-05-29T13:39:53;22.00;60.00
76613;DHT22;65507;48.454;-2.058;2023-05-29T13:42:18;22.00;59.90
76613;DHT22;65507;48.454;-2.058;2023-05-29T13:44:44;22.10;59.80
76613;DHT22;65507;48.454;-2.058;2023-05-29T13:47:10;22.20;59.60
76613;DHT22;65507;48.454;-2.058;2023-05-29T13:49:35;22.20;59.50
76613;DHT22;65507;48.454;-2.058;2023-05-29T13:52:04;21.70;59.10
76613;DHT22;65507;48.454;-2.058;2023-05-29T13:54:29;22.20;59.40
76613;DHT22;65507;48.454;-2.058;2023-05-29T13:56:57;22.20;59.40
76613;DHT22;65507;48.454;-2.058;2023-05-29T13:59:23;22.20;59.60
76613;DHT22;65507;48.454;-2.058;2023-05-29T14:01:49;22.30;59.60
76613;DHT22;65507;48.454;-2.058;2023-05-29T14:04:14;22.30;59.40
76613;DHT22;65507;48.454;-2.058;2023-05-29T14:06:40;22.30;59.40
76613;DHT22;65507;48.454;-2.058;2023-05-29T14:09:05;22.30;59.40
76613;DHT22;65507;48.454;-2.058;2023-05-29T14:11:37;22.20;59.40
76613;DHT22;65507;48.454;-2.058;2023-05-29T14:14:03;22.40;59.30
76613;DHT22;65507;48.454;-2.058;2023-05-29T14:16:29;22.50;59.20
76613;DHT22;65507;48.454;-2.058;2023-05-29T14:18:55;22.40;59.00
76613;DHT22;65507;48.454;-2.058;2023-05-29T14:21:21;22.60;59.80
76613;DHT22;65507;48.454;-2.058;2023-05-29T14:23:46;22.70;58.80
76613;DHT22;65507;48.454;-2.058;2023-05-29T14:26:12;22.60;58.70
76613;DHT22;65507;48.454;-2.058;2023-05-29T14:28:38;22.50;58.70
76613;DHT22;65507;48.454;-2.058;2023-05-29T14:31:04;22.40;59.00
76613;DHT22;65507;48.454;-2.058;2023-05-29T14:33:29;22.40;59.20
76613;DHT22;65507;48.454;-2.058;2023-05-29T14:35:55;22.30;59.20
76613;DHT22;65507;48.454;-2.058;2023-05-29T14:38:22;22.30;59.20
76613;DHT22;65507;48.454;-2.058;2023-05-29T14:40:47;22.30;59.20
76613;DHT22;65507;48.454;-2.058;2023-05-29T14:43:13;22.10;59.30
76613;DHT22;65507;48.454;-2.058;2023-05-29T14:45:38;22.10;59.40
76613;DHT22;65507;48.454;-2.058;2023-05-29T14:48:04;22.10;59.30
76613;DHT22;65507;48.454;-2.058;2023-05-29T14:50:30;22.10;59.20
76613;DHT22;65507;48.454;-2.058;2023-05-29T14:52:55;22.10;59.40
76613;DHT22;65507;48.454;-2.058;2023-05-29T14:55:21;22.10;59.40
76613;DHT22;65507;48.454;-2.058;2023-05-29T14:57:46;22.10;59.30
76613;DHT22;65507;48.454;-2.058;2023-05-29T15:00:12;22.10;59.20
76613;DHT22;65507;48.454;-2.058;2023-05-29T15:02:37;22.10;59.10
76613;DHT22;65507;48.454;-2.058;2023-05-29T15:05:06;22.10;59.10
76613;DHT22;65507;48.454;-2.058;2023-05-29T15:07:32;22.10;59.00
76613;DHT22;65507;48.454;-2.058;2023-05-29T15:09:59;22.10;58.90
76613;DHT22;65507;48.454;-2.058;2023-05-29T15:12:25;22.00;60.00
76613;DHT22;65507;48.454;-2.058;2023-05-29T15:14:51;21.90;59.20
76613;DHT22;65507;48.454;-2.058;2023-05-29T15:17:16;21.90;59.40
76613;DHT22;65507;48.454;-2.058;2023-05-29T15:19:43;21.80;59.40
76613;DHT22;65507;48.454;-2.058;2023-05-29T15:22:08;21.70;59.50
76613;DHT22;65507;48.454;-2.058;2023-05-29T15:24:34;21.70;59.60
76613;DHT22;65507;48.454;-2.058;2023-05-29T15:27:00;21.60;59.50
76613;DHT22;65507;48.454;-2.058;2023-05-29T15:29:30;21.70;59.50
76613;DHT22;65507;48.454;-2.058;2023-05-29T15:31:55;21.60;59.50
76613;DHT22;65507;48.454;-2.058;2023-05-29T15:34:21;21.50;59.50
76613;DHT22;65507;48.454;-2.058;2023-05-29T15:36:46;21.50;59.70